Wellfleet, Nebraska
Current Conditions -  °F | °C
As of 4:53 AM on Wednesday 22 Oct 2014 (Local Time) from KLBF Reporting Station
Clear Clear  
Wind Chill: 61°   Ceiling: Unl
Heat Index: 61°   Visibility: 10mi
Dew Point: 50°   Wind: 10mph
Humidity: 67%   Direction: 180°S
Pressure: 29.9"   Gusts: NA
Location:  40.75°N, 100.73°W
Report Text: KLBF 220953Z AUTO 18009KT 10SM CLR 16/10 A2990 RMK AO2 SLP102 T01610100
Loading
Personal Weather Stations






























Interactive Weather Map
Tropical Storm Tracking
New forecast layout! Learn more

10-Day Weather Forecast

Advertisements
Track Severe Weather on mobile